Terminal Aerodrome Forecast
Issued by NWS Sioux Falls, SD

Home | Current Version | Previous Version | Text Only | Print | Product List | Glossary Off
Versions: 1 2 3 4 5 6 7 8 9 10 11 12 13 14 15 16 17 18 19 20 21 22 23

036
FTUS43 KFSD 031244 AAA
TAFFSD
TAF AMD
KFSD 031244Z 0313/0412 18003KT P6SM SCT025
     FM031400 17008KT P6SM SCT025 BKN080
     FM031900 17010KT P6SM VCSH BKN035
     FM032200 17011KT 5SM -RASN BKN015
     FM040200 17012KT P6SM BKN015
     FM041000 23008KT P6SM BKN025=

USA.gov is the U.S. government's official web portal to all federal, state and local government web resources and services.